^^
B2 Weather Station Historical Data
Daily Summary for February 26, 2018 Units:  English    Metric   Both
Daily Weekly Monthly Yearly Custom
  High: Low: Average:
Temperature: 54.3 °F 28.9 °F 42.2 °F
Dew Point: 36.8 °F 25.0 °F 31.6 °F
Humidity: 90% 45% 68%
Wind Speed: 17.3mph 0.0mph 4.2mph
Wind Gust: 17.3mph - -
Wind- - SW
Pressure: 30.30 in 30.15 in -
Precipitation: 0.00 in    
Historical Graphs
 
 
Tabular Data for February 26, 2018
Time Temperature Dew Point Pressure Wind Wind Speed Wind Gust Humidity Rainfall Rate (Hourly) solar
00:01 36.6 °F 27.7 °F 30.15 in West 3.5 mph 3.5 mph 70% 0.00 in 0.0 W/m2
00:06 36.7 °F 27.8 °F 30.16 in West 3.5 mph 3.5 mph 70% 0.00 in 0.0 W/m2
00:11 36.8 °F 27.6 °F 30.16 in West 3.5 mph 3.5 mph 69% 0.00 in 0.0 W/m2
00:16 36.8 °F 27.6 °F 30.16 in Calm     69% 0.00 in 0.0 W/m2
00:21 36.7 °F 27.5 °F 30.16 in West 2.3 mph 2.3 mph 69% 0.00 in 0.0 W/m2
00:26 36.5 °F 27.3 °F 30.16 in West 4.6 mph 4.6 mph 69% 0.00 in 0.0 W/m2
00:31 36.4 °F 27.2 °F 30.16 in WSW 3.5 mph 3.5 mph 69% 0.00 in 0.0 W/m2
00:36 36.2 °F 27.4 °F 30.17 in WSW 2.3 mph   70% 0.00 in 0.0 W/m2
00:41 36.1 °F 27.3 °F 30.17 in West 4.6 mph 4.6 mph 70% 0.00 in 0.0 W/m2
00:46 36.1 °F 27.3 °F 30.17 in West 3.5 mph 3.5 mph 70% 0.00 in 0.0 W/m2
00:51 36.0 °F 27.5 °F 30.17 in West 3.5 mph 3.5 mph 71% 0.00 in 0.0 W/m2
00:56 35.9 °F 27.4 °F 30.17 in WSW 3.5 mph 3.5 mph 71% 0.00 in 0.0 W/m2
01:01 35.8 °F 27.3 °F 30.17 in WSW 4.6 mph 4.6 mph 71% 0.00 in 0.0 W/m2
01:06 35.7 °F 27.6 °F 30.17 in West 3.5 mph 3.5 mph 72% 0.00 in 0.0 W/m2
01:11 35.8 °F 27.3 °F 30.17 in WSW 3.5 mph 3.5 mph 71% 0.00 in 0.0 W/m2
01:16 35.9 °F 27.4 °F 30.17 in West 3.5 mph 3.5 mph 71% 0.00 in 0.0 W/m2
01:21 35.9 °F 27.4 °F 30.17 in WSW 3.5 mph 3.5 mph 71% 0.00 in 0.0 W/m2
01:26 36.0 °F 27.5 °F 30.18 in West 3.5 mph 3.5 mph 71% 0.00 in 0.0 W/m2
01:31 36.0 °F 27.5 °F 30.18 in WSW 3.0 mph 3.0 mph 71% 0.00 in 0.0 W/m2
01:36 35.9 °F 27.4 °F 30.18 in Calm     71% 0.00 in 0.0 W/m2
01:41 35.7 °F 27.2 °F 30.18 in Calm     71% 0.00 in 0.0 W/m2
01:46 35.4 °F 27.3 °F 30.18 in Calm     72% 0.00 in 0.0 W/m2
01:51 35.2 °F 27.1 °F 30.18 in Calm     72% 0.00 in 0.0 W/m2
01:56 35.0 °F 26.9 °F 30.18 in Calm     72% 0.00 in 0.0 W/m2
02:01 34.8 °F 27.0 °F 30.18 in Calm     73% 0.00 in 0.0 W/m2
02:06 34.6 °F 26.8 °F 30.18 in Calm     73% 0.00 in 0.0 W/m2
02:11 34.4 °F 26.6 °F 30.18 in Calm     73% 0.00 in 0.0 W/m2
02:16 34.4 °F 27.0 °F 30.18 in Calm     74% 0.00 in 0.0 W/m2
02:21 34.4 °F 27.0 °F 30.18 in Calm     74% 0.00 in 0.0 W/m2
02:26 34.3 °F 26.9 °F 30.18 in Calm     74% 0.00 in 0.0 W/m2
02:31 34.2 °F 26.8 °F 30.18 in Calm     74% 0.00 in 0.0 W/m2
02:36 34.1 °F 27.0 °F 30.18 in Calm     75% 0.00 in 0.0 W/m2
02:41 34.1 °F 27.0 °F 30.18 in Calm     75% 0.00 in 0.0 W/m2
02:46 33.9 °F 27.1 °F 30.18 in Calm     76% 0.00 in 0.0 W/m2
02:51 33.8 °F 26.7 °F 30.18 in Calm     75% 0.00 in 0.0 W/m2
02:56 33.7 °F 26.9 °F 30.18 in Calm     76% 0.00 in 0.0 W/m2
03:01 33.4 °F 26.6 °F 30.18 in Calm     76% 0.00 in 0.0 W/m2
03:06 33.1 °F 26.4 °F 30.18 in Calm     76% 0.00 in 0.0 W/m2
03:11 32.9 °F 26.5 °F 30.18 in Calm     77% 0.00 in 0.0 W/m2
03:16 32.6 °F 26.2 °F 30.18 in Calm     77% 0.00 in 0.0 W/m2
03:21 32.5 °F 26.1 °F 30.18 in Calm     77% 0.00 in 0.0 W/m2
03:26 32.4 °F 26.3 °F 30.18 in Calm     78% 0.00 in 0.0 W/m2
03:31 32.4 °F 26.3 °F 30.18 in Calm     78% 0.00 in 0.0 W/m2
03:36 32.4 °F 26.3 °F 30.18 in Calm     78% 0.00 in 0.0 W/m2
03:41 32.3 °F 26.2 °F 30.18 in Calm     78% 0.00 in 0.0 W/m2
03:46 32.3 °F 26.5 °F 30.18 in Calm     79% 0.00 in 0.0 W/m2
03:51 32.2 °F 26.1 °F 30.18 in Calm     78% 0.00 in 0.0 W/m2
03:56 32.1 °F 26.0 °F 30.18 in Calm     78% 0.00 in 0.0 W/m2
04:01 32.1 °F 26.3 °F 30.18 in Calm     79% 0.00 in 0.0 W/m2
04:06 32.0 °F 26.2 °F 30.18 in Calm     79% 0.00 in 0.0 W/m2
04:11 31.9 °F 26.1 °F 30.18 in Calm     79% 0.00 in 0.0 W/m2
04:16 31.8 °F 26.0 °F 30.18 in Calm     79% 0.00 in 0.0 W/m2
04:21 31.8 °F 26.3 °F 30.19 in Calm     80% 0.00 in 0.0 W/m2
04:25 31.7 °F 26.2 °F 30.19 in Calm     80% 0.00 in 0.0 W/m2
04:30 31.5 °F 26.0 °F 30.19 in Calm     80% 0.00 in 0.0 W/m2
04:35 31.3 °F 25.8 °F 30.19 in Calm     80% 0.00 in 0.0 W/m2
04:40 31.0 °F 25.2 °F 30.19 in Calm     79% 0.00 in 0.0 W/m2
04:45 30.7 °F 25.0 °F 30.19 in Calm     79% 0.00 in 0.0 W/m2
04:50 30.6 °F 25.2 °F 30.20 in Calm     80% 0.00 in 0.0 W/m2
04:55 30.2 °F 25.1 °F 30.20 in Calm     81% 0.00 in 0.0 W/m2
05:00 30.1 °F 25.6 °F 30.20 in Calm     83% 0.00 in 0.0 W/m2
05:05 30.0 °F 25.8 °F 30.20 in Calm     84% 0.00 in 0.0 W/m2
05:10 30.0 °F 26.0 °F 30.20 in Calm     85% 0.00 in 0.0 W/m2
05:15 30.0 °F 26.0 °F 30.20 in Calm     85% 0.00 in 0.0 W/m2
05:20 29.8 °F 25.8 °F 30.20 in Calm     85% 0.00 in 0.0 W/m2
05:25 29.7 °F 25.7 °F 30.21 in Calm     85% 0.00 in 0.0 W/m2
05:30 29.6 °F 25.9 °F 30.21 in Calm     86% 0.00 in 0.0 W/m2
05:35 29.6 °F 25.9 °F 30.21 in Calm     86% 0.00 in 0.0 W/m2
05:40 29.9 °F 26.5 °F 30.21 in Calm     87% 0.00 in 0.0 W/m2
05:45 30.0 °F 26.6 °F 30.22 in Calm     87% 0.00 in 0.0 W/m2
05:50 29.9 °F 26.2 °F 30.22 in Calm     86% 0.00 in 0.0 W/m2
05:55 29.8 °F 26.4 °F 30.22 in Calm     87% 0.00 in 0.0 W/m2
06:00 29.7 °F 26.3 °F 30.22 in Calm     87% 0.00 in 0.0 W/m2
06:05 29.6 °F 26.5 °F 30.22 in Calm     88% 0.00 in 0.0 W/m2
06:10 29.4 °F 26.3 °F 30.23 in Calm     88% 0.00 in 0.0 W/m2
06:15 29.2 °F 26.1 °F 30.23 in Calm     88% 0.00 in 0.0 W/m2
06:20 29.2 °F 26.1 °F 30.23 in Calm     88% 0.00 in 0.0 W/m2
06:25 29.1 °F 26.3 °F 30.23 in Calm     89% 0.00 in 0.0 W/m2
06:30 28.9 °F 26.1 °F 30.23 in Calm     89% 0.00 in 5.0 W/m2
06:35 28.9 °F 26.1 °F 30.24 in Calm     89% 0.00 in 7.0 W/m2
06:40 28.9 °F 26.1 °F 30.24 in Calm     89% 0.00 in 11.0 W/m2
06:45 28.9 °F 26.1 °F 30.24 in Calm     89% 0.00 in 12.0 W/m2
06:50 29.2 °F 26.6 °F 30.24 in Calm     90% 0.00 in 16.0 W/m2
06:55 29.7 °F 27.1 °F 30.24 in Calm     90% 0.00 in 25.0 W/m2
07:00 30.2 °F 27.6 °F 30.25 in Calm     90% 0.00 in 33.0 W/m2
07:05 30.7 °F 28.1 °F 30.25 in Calm     90% 0.00 in 47.0 W/m2
07:10 31.3 °F 28.4 °F 30.25 in Calm     89% 0.00 in 58.0 W/m2
07:15 31.8 °F 28.9 °F 30.25 in Calm     89% 0.00 in 70.0 W/m2
07:20 32.3 °F 29.4 °F 30.26 in Calm     89% 0.00 in 84.0 W/m2
07:25 32.7 °F 29.5 °F 30.26 in Calm     88% 0.00 in 100.0 W/m2
07:30 33.2 °F 30.0 °F 30.26 in Calm     88% 0.00 in 118.0 W/m2
07:35 33.6 °F 30.1 °F 30.26 in Calm     87% 0.00 in 137.0 W/m2
07:40 33.9 °F 30.2 °F 30.26 in Calm     86% 0.00 in 155.0 W/m2
07:45 34.4 °F 30.6 °F 30.27 in SSW 3.5 mph   86% 0.00 in 174.0 W/m2
07:51 34.9 °F 30.8 °F 30.27 in Calm     85% 0.00 in 195.0 W/m2
07:56 35.4 °F 31.0 °F 30.26 in Calm     84% 0.00 in 216.0 W/m2
08:01 35.9 °F 31.2 °F 30.27 in Calm   1.0 mph 83% 0.00 in 236.0 W/m2
08:06 36.4 °F 31.4 °F 30.27 in South 3.5 mph 3.5 mph 82% 0.00 in 253.0 W/m2
08:11 36.9 °F 31.3 °F 30.27 in SSW 3.5 mph 3.5 mph 80% 0.00 in 271.0 W/m2
08:16 37.4 °F 31.5 °F 30.27 in SSW 3.5 mph 3.5 mph 79% 0.00 in 287.0 W/m2
08:26 38.3 °F 31.7 °F 30.27 in SW 4.6 mph 4.6 mph 77% 0.00 in 315.0 W/m2
08:31 38.7 °F 31.8 °F 30.27 in SW 3.5 mph 3.5 mph 76% 0.00 in 330.0 W/m2
08:36 39.2 °F 31.9 °F 30.27 in South 4.0 mph 4.0 mph 75% 0.00 in 346.0 W/m2
08:41 39.7 °F 32.1 °F 30.27 in SW 5.8 mph 5.8 mph 74% 0.00 in 360.0 W/m2
08:46 40.1 °F 31.8 °F 30.27 in South 5.8 mph 5.8 mph 72% 0.00 in 376.0 W/m2
08:51 40.6 °F 32.3 °F 30.27 in SW 3.5 mph 3.5 mph 72% 0.00 in 390.0 W/m2
08:56 41.4 °F 32.3 °F 30.27 in SSW 6.9 mph 6.9 mph 70% 0.00 in 401.0 W/m2
09:01 41.8 °F 31.6 °F 30.27 in SSW 6.9 mph 6.9 mph 67% 0.00 in 417.0 W/m2
09:06 42.3 °F 31.7 °F 30.28 in SW 4.6 mph 4.6 mph 66% 0.00 in 429.0 W/m2
09:11 42.8 °F 32.2 °F 30.28 in SSW 3.5 mph 3.5 mph 66% 0.00 in 443.0 W/m2
09:16 43.4 °F 32.4 °F 30.28 in SSW 3.5 mph 3.5 mph 65% 0.00 in 455.0 W/m2
09:21 43.7 °F 31.9 °F 30.28 in SSW 5.8 mph 5.8 mph 63% 0.00 in 468.0 W/m2
09:26 44.2 °F 32.8 °F 30.28 in SW 4.0 mph 4.0 mph 64% 0.00 in 480.0 W/m2
09:31 44.5 °F 31.5 °F 30.28 in SSW 4.6 mph 4.6 mph 60% 0.00 in 494.0 W/m2
09:36 44.8 °F 31.8 °F 30.28 in SSW 6.9 mph 6.9 mph 60% 0.00 in 504.0 W/m2
09:41 45.2 °F 32.5 °F 30.29 in SW 5.0 mph 5.0 mph 61% 0.00 in 517.0 W/m2
09:46 45.7 °F 32.6 °F 30.29 in SSW 4.6 mph 4.6 mph 60% 0.00 in 527.0 W/m2
09:51 46.0 °F 32.5 °F 30.29 in SSW 8.1 mph 8.1 mph 59% 0.00 in 540.0 W/m2
09:56 46.1 °F 33.4 °F 30.29 in SW 3.5 mph 3.5 mph 61% 0.00 in 548.0 W/m2
10:01 46.3 °F 33.2 °F 30.29 in SSW 4.6 mph 4.6 mph 60% 0.00 in 559.0 W/m2
10:06 46.4 °F 33.7 °F 30.29 in SSW 8.0 mph 8.0 mph 61% 0.00 in 570.0 W/m2
10:11 46.4 °F 33.7 °F 30.30 in SSW 9.2 mph 9.2 mph 61% 0.00 in 577.0 W/m2
10:16 46.6 °F 35.1 °F 30.30 in SSW 4.6 mph 4.6 mph 64% 0.00 in 587.0 W/m2
10:21 46.8 °F 33.6 °F 30.30 in SSW 9.2 mph 9.2 mph 60% 0.00 in 596.0 W/m2
10:26 46.9 °F 33.3 °F 30.30 in SSW 6.9 mph 6.9 mph 59% 0.00 in 603.0 W/m2
10:31 47.0 °F 34.2 °F 30.30 in SSW 9.2 mph 9.2 mph 61% 0.00 in 613.0 W/m2
10:36 47.6 °F 33.5 °F 30.30 in WSW 6.9 mph 6.9 mph 58% 0.00 in 619.0 W/m2
10:41 47.9 °F 33.4 °F 30.30 in South 11.5 mph 11.5 mph 57% 0.00 in 628.0 W/m2
10:46 48.3 °F 33.8 °F 30.30 in SW 6.9 mph 6.9 mph 57% 0.00 in 633.0 W/m2
10:51 48.3 °F 33.8 °F 30.30 in SSW 10.4 mph 10.4 mph 57% 0.00 in 642.0 W/m2
10:56 48.5 °F 34.4 °F 30.30 in SW 5.8 mph 5.8 mph 58% 0.00 in 647.0 W/m2
11:01 48.8 °F 34.7 °F 30.30 in South 11.5 mph 11.5 mph 58% 0.00 in 650.0 W/m2
11:06 49.1 °F 34.9 °F 30.30 in SSW 11.0 mph 11.0 mph 58% 0.00 in 654.0 W/m2
11:11 49.2 °F 33.7 °F 30.30 in SW 9.0 mph 9.0 mph 55% 0.00 in 659.0 W/m2
11:17 49.0 °F 33.1 °F 30.30 in SW 9.2 mph 9.2 mph 54% 0.00 in 664.0 W/m2
11:22 48.9 °F 33.0 °F 30.30 in WSW 11.5 mph 11.5 mph 54% 0.00 in 668.0 W/m2
11:27 49.0 °F 32.6 °F 30.30 in WSW 13.8 mph 13.8 mph 53% 0.00 in 671.0 W/m2
11:32 49.3 °F 33.3 °F 30.30 in SW 6.9 mph 6.9 mph 54% 0.00 in 675.0 W/m2
11:37 49.4 °F 31.5 °F 30.30 in South 11.5 mph 11.5 mph 50% 0.00 in 677.0 W/m2
11:42 49.6 °F 33.6 °F 30.30 in SW 12.7 mph 12.7 mph 54% 0.00 in 679.0 W/m2
11:47 50.1 °F 34.1 °F 30.30 in SW 15.0 mph 15.0 mph 54% 0.00 in 680.0 W/m2
11:52 50.1 °F 32.2 °F 30.30 in SSW 10.4 mph 10.4 mph 50% 0.00 in 682.0 W/m2
11:57 50.0 °F 33.1 °F 30.29 in SW 13.8 mph 13.8 mph 52% 0.00 in 684.0 W/m2
12:02 50.3 °F 33.8 °F 30.29 in SW 11.5 mph 11.5 mph 53% 0.00 in 680.0 W/m2
12:07 50.9 °F 34.8 °F 30.29 in SSW 10.4 mph 10.4 mph 54% 0.00 in 684.0 W/m2
12:12 51.1 °F 34.5 °F 30.28 in South 6.9 mph 6.9 mph 53% 0.00 in 686.0 W/m2
12:17 51.3 °F 33.3 °F 30.28 in South 9.2 mph 9.2 mph 50% 0.00 in 684.0 W/m2
12:22 51.4 °F 32.9 °F 30.28 in South 8.1 mph 8.1 mph 49% 0.00 in 682.0 W/m2
12:27 51.4 °F 31.3 °F 30.28 in SW 16.1 mph 16.1 mph 46% 0.00 in 680.0 W/m2
12:32 51.2 °F 31.6 °F 30.28 in SW 13.8 mph 13.8 mph 47% 0.00 in 680.0 W/m2
12:37 51.4 °F 31.3 °F 30.27 in SW 12.7 mph 12.7 mph 46% 0.00 in 675.0 W/m2
12:42 51.6 °F 32.0 °F 30.27 in WSW 17.3 mph 17.3 mph 47% 0.00 in 675.0 W/m2
12:47 51.6 °F 32.0 °F 30.27 in SSW 16.1 mph 16.1 mph 47% 0.00 in 666.0 W/m2
12:52 51.3 °F 31.7 °F 30.27 in South 13.8 mph 13.8 mph 47% 0.00 in 668.0 W/m2
12:57 51.5 °F 33.0 °F 30.27 in SW 12.0 mph 12.0 mph 49% 0.00 in 661.0 W/m2
13:02 52.1 °F 33.5 °F 30.27 in WSW 15.0 mph 15.0 mph 49% 0.00 in 659.0 W/m2
13:07 52.1 °F 33.0 °F 30.27 in WSW 14.0 mph 14.0 mph 48% 0.00 in 654.0 W/m2
13:12 52.0 °F 32.9 °F 30.27 in SW 10.4 mph 10.4 mph 48% 0.00 in 649.0 W/m2
13:17 52.2 °F 32.0 °F 30.27 in WSW 13.8 mph 13.8 mph 46% 0.00 in 643.0 W/m2
13:22 52.4 °F 32.7 °F 30.27 in WSW 11.5 mph 11.5 mph 47% 0.00 in 633.0 W/m2
13:27 52.6 °F 32.9 °F 30.26 in SW 12.7 mph 12.7 mph 47% 0.00 in 624.0 W/m2
13:32 52.6 °F 32.9 °F 30.26 in SSW 9.2 mph 9.2 mph 47% 0.00 in 624.0 W/m2
13:37 52.6 °F 31.8 °F 30.26 in SW 13.8 mph 13.8 mph 45% 0.00 in 619.0 W/m2
13:42 52.7 °F 32.5 °F 30.26 in South 16.1 mph 16.1 mph 46% 0.00 in 608.0 W/m2
13:47 52.5 °F 32.8 °F 30.26 in WSW 11.5 mph 11.5 mph 47% 0.00 in 599.0 W/m2
13:52 52.6 °F 32.9 °F 30.26 in SSW 13.8 mph 13.8 mph 47% 0.00 in 589.0 W/m2
13:57 52.8 °F 32.6 °F 30.26 in WSW 15.0 mph 15.0 mph 46% 0.00 in 582.0 W/m2
14:02 53.2 °F 34.5 °F 30.26 in SW 8.1 mph 8.1 mph 49% 0.00 in 570.0 W/m2
14:07 53.4 °F 34.2 °F 30.26 in WSW 11.5 mph 11.5 mph 48% 0.00 in 561.0 W/m2
14:12 53.6 °F 34.9 °F 30.25 in WSW 13.0 mph 13.0 mph 49% 0.00 in 550.0 W/m2
14:17 53.6 °F 33.3 °F 30.26 in SSW 12.0 mph 12.0 mph 46% 0.00 in 538.0 W/m2
14:22 53.9 °F 34.1 °F 30.26 in SSW 5.8 mph 5.8 mph 47% 0.00 in 533.0 W/m2
14:27 54.2 °F 33.3 °F 30.26 in SW 13.8 mph 13.8 mph 45% 0.00 in 526.0 W/m2
14:37 53.6 °F 33.3 °F 30.26 in SW 8.1 mph 8.1 mph 46% 0.00 in 496.0 W/m2
14:42 53.6 °F 33.8 °F 30.26 in SSW 10.4 mph 10.4 mph 47% 0.00 in 483.0 W/m2
14:47 54.1 °F 34.3 °F 30.26 in SSW 4.6 mph 4.6 mph 47% 0.00 in 469.0 W/m2
14:52 54.0 °F 33.1 °F 30.26 in SW 15.0 mph 15.0 mph 45% 0.00 in 459.0 W/m2
14:57 53.9 °F 34.1 °F 30.26 in SSE 6.9 mph 6.9 mph 47% 0.00 in 448.0 W/m2
15:02 54.0 °F 34.2 °F 30.26 in SSW 16.1 mph 16.1 mph 47% 0.00 in 431.0 W/m2
15:07 54.1 °F 34.3 °F 30.25 in SW 12.7 mph 12.7 mph 47% 0.00 in 417.0 W/m2
15:12 54.3 °F 34.5 °F 30.25 in WSW 14.0 mph 14.0 mph 47% 0.00 in 404.0 W/m2
15:17 54.1 °F 34.3 °F 30.25 in WSW 12.0 mph 12.0 mph 47% 0.00 in 390.0 W/m2
15:22 54.0 °F 34.2 °F 30.25 in WSW 9.2 mph 9.2 mph 47% 0.00 in 380.0 W/m2
15:27 53.9 °F 34.1 °F 30.25 in SSW 11.5 mph 11.5 mph 47% 0.00 in 364.0 W/m2
15:32 53.9 °F 33.6 °F 30.25 in WSW 11.5 mph 11.5 mph 46% 0.00 in 348.0 W/m2
15:37 54.1 °F 33.8 °F 30.25 in SSW 12.0 mph 12.0 mph 46% 0.00 in 341.0 W/m2
15:42 54.0 °F 33.7 °F 30.25 in SSW 11.5 mph 11.5 mph 46% 0.00 in 332.0 W/m2
15:47 54.0 °F 34.2 °F 30.25 in SSW 11.5 mph 11.5 mph 47% 0.00 in 306.0 W/m2
15:52 53.9 °F 33.6 °F 30.25 in SW 11.5 mph 11.5 mph 46% 0.00 in 288.0 W/m2
15:57 53.9 °F 33.6 °F 30.25 in SSW 11.5 mph 11.5 mph 46% 0.00 in 276.0 W/m2
16:02 53.9 °F 33.6 °F 30.25 in WSW 11.5 mph 11.5 mph 46% 0.00 in 258.0 W/m2
16:07 53.8 °F 34.0 °F 30.25 in SSW 10.0 mph 10.0 mph 47% 0.00 in 225.0 W/m2
16:12 53.6 °F 33.3 °F 30.25 in SSW 11.5 mph 11.5 mph 46% 0.00 in 225.0 W/m2
16:17 53.5 °F 33.7 °F 30.25 in West 11.5 mph 11.5 mph 47% 0.00 in 207.0 W/m2
16:22 53.6 °F 33.8 °F 30.25 in SSW 8.0 mph 8.0 mph 47% 0.00 in 179.0 W/m2
16:27 53.6 °F 34.4 °F 30.25 in SW 13.8 mph 13.8 mph 48% 0.00 in 160.0 W/m2
16:32 53.6 °F 34.4 °F 30.25 in SSW 10.4 mph 10.4 mph 48% 0.00 in 141.0 W/m2
16:37 53.6 °F 35.4 °F 30.25 in South 3.5 mph 3.5 mph 50% 0.00 in 121.0 W/m2
16:42 53.2 °F 35.0 °F 30.25 in SW 9.2 mph 9.2 mph 50% 0.00 in 104.0 W/m2
16:47 52.8 °F 34.2 °F 30.25 in SW 11.5 mph 11.5 mph 49% 0.00 in 88.0 W/m2
16:52 52.7 °F 34.1 °F 30.25 in SSW 8.1 mph 8.1 mph 49% 0.00 in 74.0 W/m2
16:57 52.7 °F 34.6 °F 30.25 in SW 1.2 mph 1.2 mph 50% 0.00 in 60.0 W/m2
17:02 52.3 °F 35.2 °F 30.25 in SW 3.5 mph 3.5 mph 52% 0.00 in 25.0 W/m2
17:07 51.8 °F 35.2 °F 30.25 in SSW 3.5 mph 3.5 mph 53% 0.00 in 23.0 W/m2
17:12 51.4 °F 35.8 °F 30.25 in SSW 8.1 mph 8.1 mph 55% 0.00 in 19.0 W/m2
17:17 51.0 °F 35.4 °F 30.25 in SSW 3.5 mph 3.5 mph 55% 0.00 in 18.0 W/m2
17:22 50.7 °F 36.0 °F 30.25 in SSW 3.5 mph 3.5 mph 57% 0.00 in 14.0 W/m2
17:27 50.4 °F 36.2 °F 30.25 in SW 6.9 mph 6.9 mph 58% 0.00 in 11.0 W/m2
17:32 50.1 °F 35.9 °F 30.25 in SSW 2.3 mph   58% 0.00 in 9.0 W/m2
17:37 49.8 °F 36.0 °F 30.26 in SSW 1.2 mph 1.2 mph 59% 0.00 in 5.0 W/m2
17:42 49.5 °F 36.2 °F 30.26 in SSW 1.2 mph 1.2 mph 60% 0.00 in 0.0 W/m2
17:47 49.1 °F 36.2 °F 30.26 in SW 3.5 mph 3.5 mph 61% 0.00 in 0.0 W/m2
17:52 48.7 °F 36.3 °F 30.26 in Calm     62% 0.00 in 0.0 W/m2
17:57 48.3 °F 36.7 °F 30.26 in Calm     64% 0.00 in 0.0 W/m2
18:02 47.8 °F 36.6 °F 30.26 in Calm     65% 0.00 in 0.0 W/m2
18:07 47.2 °F 36.4 °F 30.26 in Calm     66% 0.00 in 0.0 W/m2
18:13 46.6 °F 36.2 °F 30.26 in Calm     67% 0.00 in 0.0 W/m2
18:18 46.0 °F 36.4 °F 30.26 in Calm     69% 0.00 in 0.0 W/m2
18:23 45.6 °F 36.4 °F 30.26 in Calm     70% 0.00 in 0.0 W/m2
18:28 45.3 °F 36.8 °F 30.26 in Calm     72% 0.00 in 0.0 W/m2
18:33 45.2 °F 36.7 °F 30.26 in Calm     72% 0.00 in 0.0 W/m2
18:38 45.1 °F 36.6 °F 30.27 in Calm     72% 0.00 in 0.0 W/m2
18:43 44.9 °F 36.4 °F 30.27 in Calm     72% 0.00 in 0.0 W/m2
18:48 44.9 °F 36.4 °F 30.26 in Calm     72% 0.00 in 0.0 W/m2
18:53 45.0 °F 36.5 °F 30.26 in SSW 3.5 mph 3.5 mph 72% 0.00 in 0.0 W/m2
18:58 45.0 °F 36.5 °F 30.26 in Calm     72% 0.00 in 0.0 W/m2
19:03 44.8 °F 36.3 °F 30.26 in Calm     72% 0.00 in 0.0 W/m2
19:08 44.5 °F 36.0 °F 30.27 in Calm     72% 0.00 in 0.0 W/m2
19:13 44.3 °F 36.2 °F 30.27 in Calm     73% 0.00 in 0.0 W/m2
19:18 44.1 °F 36.0 °F 30.27 in SSW 2.3 mph 2.3 mph 73% 0.00 in 0.0 W/m2
19:23 44.0 °F 36.2 °F 30.27 in SSW 1.2 mph   74% 0.00 in 0.0 W/m2
19:28 43.9 °F 36.1 °F 30.27 in Calm     74% 0.00 in 0.0 W/m2
19:33 43.9 °F 35.8 °F 30.27 in Calm     73% 0.00 in 0.0 W/m2
19:38 43.7 °F 35.6 °F 30.27 in Calm     73% 0.00 in 0.0 W/m2
19:43 43.6 °F 35.9 °F 30.27 in Calm     74% 0.00 in 0.0 W/m2
19:48 43.6 °F 35.9 °F 30.27 in Calm     74% 0.00 in 0.0 W/m2
19:53 43.6 °F 35.9 °F 30.27 in Calm     74% 0.00 in 0.0 W/m2
19:58 43.4 °F 35.7 °F 30.27 in SSW 2.3 mph 2.3 mph 74% 0.00 in 0.0 W/m2
20:03 43.3 °F 35.9 °F 30.27 in SSW 3.5 mph 3.5 mph 75% 0.00 in 0.0 W/m2
20:08 43.2 °F 35.8 °F 30.27 in Calm     75% 0.00 in 0.0 W/m2
20:13 43.0 °F 35.6 °F 30.27 in Calm     75% 0.00 in 0.0 W/m2
20:18 42.9 °F 35.5 °F 30.27 in SSW 2.3 mph 2.3 mph 75% 0.00 in 0.0 W/m2
20:23 42.7 °F 35.3 °F 30.27 in Calm     75% 0.00 in 0.0 W/m2
20:28 42.7 °F 35.3 °F 30.27 in SSW 2.3 mph 2.3 mph 75% 0.00 in 0.0 W/m2
20:33 42.6 °F 35.2 °F 30.28 in Calm     75% 0.00 in 0.0 W/m2
20:38 42.5 °F 35.1 °F 30.27 in Calm     75% 0.00 in 0.0 W/m2
20:43 42.5 °F 35.1 °F 30.28 in Calm     75% 0.00 in 0.0 W/m2
20:48 42.4 °F 35.0 °F 30.28 in Calm     75% 0.00 in 0.0 W/m2
20:53 42.3 °F 34.9 °F 30.28 in SSW 2.3 mph 2.3 mph 75% 0.00 in 0.0 W/m2
20:58 42.2 °F 34.8 °F 30.28 in Calm     75% 0.00 in 0.0 W/m2
21:03 42.3 °F 34.9 °F 30.28 in SW 2.3 mph 2.3 mph 75% 0.00 in 0.0 W/m2
21:08 42.3 °F 34.9 °F 30.28 in SSW 2.3 mph 2.3 mph 75% 0.00 in 0.0 W/m2
21:13 42.3 °F 34.9 °F 30.28 in SW 3.5 mph 3.5 mph 75% 0.00 in 0.0 W/m2
21:18 42.3 °F 34.6 °F 30.28 in SSW 1.2 mph 1.2 mph 74% 0.00 in 0.0 W/m2
21:23 42.2 °F 34.5 °F 30.28 in SSW 6.0 mph 6.0 mph 74% 0.00 in 0.0 W/m2
21:28 42.2 °F 34.5 °F 30.28 in SSW 3.5 mph 3.5 mph 74% 0.00 in 0.0 W/m2
21:33 42.3 °F 34.6 °F 30.27 in SSW 3.5 mph 3.5 mph 74% 0.00 in 0.0 W/m2
21:38 42.4 °F 34.4 °F 30.28 in SW 3.5 mph 3.5 mph 73% 0.00 in 0.0 W/m2
21:43 42.3 °F 34.3 °F 30.28 in SSW 3.5 mph 3.5 mph 73% 0.00 in 0.0 W/m2
21:48 42.1 °F 34.1 °F 30.28 in Calm     73% 0.00 in 0.0 W/m2
21:53 41.8 °F 34.1 °F 30.28 in South 1.0 mph   74% 0.00 in 0.0 W/m2
21:58 41.6 °F 33.9 °F 30.28 in SSW 2.0 mph 2.0 mph 74% 0.00 in 0.0 W/m2
22:03 41.4 °F 34.1 °F 30.28 in Calm     75% 0.00 in 0.0 W/m2
22:08 41.2 °F 33.9 °F 30.28 in Calm     75% 0.00 in 0.0 W/m2
22:13 41.1 °F 33.8 °F 30.28 in Calm     75% 0.00 in 0.0 W/m2
22:18 41.0 °F 33.7 °F 30.28 in Calm     75% 0.00 in 0.0 W/m2
22:23 40.8 °F 33.5 °F 30.28 in SSW 1.2 mph   75% 0.00 in 0.0 W/m2
22:28 40.7 °F 33.4 °F 30.28 in SSW 2.3 mph 2.3 mph 75% 0.00 in 0.0 W/m2
22:33 40.6 °F 33.3 °F 30.28 in Calm   0.5 mph 75% 0.00 in 0.0 W/m2
22:38 40.6 °F 33.3 °F 30.28 in Calm     75% 0.00 in 0.0 W/m2
22:43 40.6 °F 33.3 °F 30.28 in Calm     75% 0.00 in 0.0 W/m2
22:48 40.7 °F 33.4 °F 30.28 in Calm     75% 0.00 in 0.0 W/m2
22:53 40.6 °F 33.3 °F 30.28 in SSW 3.0 mph 3.0 mph 75% 0.00 in 0.0 W/m2
22:58 40.6 °F 33.3 °F 30.28 in SW 2.3 mph 2.3 mph 75% 0.00 in 0.0 W/m2
23:03 40.6 °F 33.3 °F 30.28 in SSW 1.0 mph   75% 0.00 in 0.0 W/m2
23:08 40.5 °F 33.2 °F 30.28 in SSW 4.6 mph 4.6 mph 75% 0.00 in 0.0 W/m2
23:13 40.5 °F 32.9 °F 30.28 in SSW 3.5 mph 3.5 mph 74% 0.00 in 0.0 W/m2
23:18 40.4 °F 32.8 °F 30.28 in Calm     74% 0.00 in 0.0 W/m2
23:23 40.3 °F 32.7 °F 30.27 in SSW 2.3 mph 2.3 mph 74% 0.00 in 0.0 W/m2
23:28 40.3 °F 32.7 °F 30.27 in Calm     74% 0.00 in 0.0 W/m2
23:33 40.2 °F 32.6 °F 30.27 in SSW 2.3 mph 2.3 mph 74% 0.00 in 0.0 W/m2
23:38 40.3 °F 32.7 °F 30.28 in SSW 3.5 mph 3.5 mph 74% 0.00 in 0.0 W/m2
23:43 40.3 °F 32.7 °F 30.28 in South 4.6 mph 4.6 mph 74% 0.00 in 0.0 W/m2
23:48 40.4 °F 32.4 °F 30.28 in SSW 3.5 mph 3.5 mph 73% 0.00 in 0.0 W/m2
23:53 40.4 °F 32.4 °F 30.28 in SSW 3.5 mph 3.5 mph 73% 0.00 in 0.0 W/m2
23:58 40.4 °F 32.4 °F 30.29 in SSW 3.5 mph 3.5 mph 73% 0.00 in 0.0 W/m2
Bourbonnais, Illinois, USA
Compliments of Weather Underground - 4 mb